Clarion, Iowa
Current Conditions -  °F | °C
As of 12:55 PM on Saturday 25 Oct 2014 (Local Time) from KCAV Reporting Station
Clear Clear  
Wind Chill: 64°   Ceiling: Unl
Heat Index: 64°   Visibility: 10mi
Dew Point: 34°   Wind: 15mph
Humidity: 32%   Direction: 360°N
Pressure: 30.11"   Gusts: NA
Location:  42.73°N, 93.73°W
Report Text: KCAV 251755Z AUTO 36013KT 10SM CLR 18/01 A3011 RMK AO2
Loading
Personal Weather Stations






























Interactive Weather Map New forecast layout! Learn more

10-Day Weather Forecast

Advertisements
Track Severe Weather on mobile